Portada
METAR-TAF:

METAR-TAF

Aeroports :

Stuttgart, Alemanya

latitud: 48-41N, longitud: 009-13E, altitud: 396 m

Observació

L'informe es va fer fa 6 minuts, a les 19:20 UTC
Vent 3 kt del Nord/Nord-Est
Temperatura 18°C
Humitat 68%
Pressió 1022 hPa
Visibilitat 10 km o més
Escasses núvols a una alçada de 4500 ft

METAR: EDDS 161920Z 03003KT 9999 FEW045 18/12 Q1022 NOSIG

Hora: 21:26 (19:26 UTC)

Pronòstic

L'informe es va fer fa 2 hores i 26 minuts, a les 17:00 UTC
Pronòstic vàlid del 16 a les 18 UTC al 17 a les 18 UTC
Vent 3 kt amb direcció variable
Visibilitat 10 km o més
sense núvols per sota de 1500 mi sense presència de cumulonimbus.
Probabilitat 30% :
Temporalment
l' 17 a les 02 UTC al 17 a les 06 UTC
Visibilitat: 0700 m
a una alçada de 100 ft
boira
Evolucionant progressivament
l' 17 a les 06 UTC al 17 a les 08 UTC
Vent 6 kt del Est/Nord-Est

TAF: EDDS 161700Z 1618/1718 VRB03KT CAVOK PROB30 TEMPO 1702/1706 0700 FG VV001 BECMG 1706/1708 07006KT

Observacions i pronòstics meteorològics de més de 4000 aeroports (METAR i TAF).

Les estacions disponibles són els punts grocs i vermells al mapa.

Posi el ratolí al punt desitjat per veure el nom de l'estació.

Feu clic per veure les observacions i els pronòstics meteorològics.

Per canviar el mapa: feu clic els botons verds amb una creu de color negre per apropar; al botó verd amb un guió per allunyar la imatge; o en les fletxes verdes per a mapes adjacents.


METAR-TAF: